Time;durP1;ratioP1;P1;durP2;ratioP2;P2;SDS_P1;SDS_P2;PMS_P1;PMS_P2;Temp;Humidity;BMP_temperature;BMP_pressure;BME280_temperature;BME280_humidity;BME280_pressure;Samples;Min_cycle;Max_cycle;Signal;HPM_P1;HPM_P2
2022/12/14 00:01:26;;;;;;;0.88;0.80;;;;;;;21.08;33.58;102349.75;20822018;28;20500;-62
2022/12/14 00:11:27;;;;;;;1.20;0.95;;;;;;;21.09;33.68;102368.13;20825842;28;20123;-62
2022/12/14 00:21:29;;;;;;;2.20;0.75;;;;;;;21.06;33.68;102329.66;20826799;28;20591;-62
2022/12/14 00:31:36;;;;;;;1.38;0.80;;;;;;;21.05;33.40;102320.47;20839450;28;20095;-63
2022/12/14 00:41:37;;;;;;;1.42;1.02;;;;;;;20.89;33.42;102292.56;20809248;28;20408;-59
2022/12/14 00:51:41;;;;;;;3.80;1.02;;;;;;;21.01;33.80;102298.94;20838925;28;20041;-60
2022/12/14 01:01:42;;;;;;;1.98;0.85;;;;;;;21.00;33.54;102286.97;20825453;28;20037;-60
2022/12/14 01:11:44;;;;;;;1.85;0.80;;;;;;;20.99;33.49;102295.59;20837153;28;20042;-61
2022/12/14 01:21:45;;;;;;;5.00;1.23;;;;;;;20.89;33.60;102273.97;20835168;28;20045;-61
2022/12/14 01:31:47;;;;;;;3.67;1.70;;;;;;;20.93;33.69;102288.22;20832126;28;20572;-60
2022/12/14 01:41:55;;;;;;;3.72;1.50;;;;;;;20.86;33.80;102262.50;20833963;28;20127;-60
2022/12/14 01:52:05;;;;;;;3.63;1.77;;;;;;;20.91;33.99;102260.63;20818793;28;20038;-60
2022/12/14 02:02:13;;;;;;;3.60;1.60;;;;;;;20.73;34.00;102242.22;20829697;28;20045;-60
2022/12/14 02:12:40;;;;;;;5.33;2.20;;;;;;;20.83;34.16;102249.91;20830427;28;20042;-61
2022/12/14 02:23:03;;;;;;;3.95;2.05;;;;;;;20.86;34.45;102240.22;20827488;28;20033;-60
2022/12/14 02:33:40;;;;;;;6.68;2.65;;;;;;;20.80;34.76;102242.91;20807859;28;20404;-60
2022/12/14 02:44:09;;;;;;;5.80;2.58;;;;;;;20.78;34.71;102222.84;20816318;28;20046;-60
2022/12/14 02:54:19;;;;;;;5.05;1.90;;;;;;;20.77;34.75;102218.38;20825574;28;20384;-60
2022/12/14 03:04:20;;;;;;;5.75;2.10;;;;;;;20.76;34.39;102213.91;20827115;28;20131;-59
2022/12/14 03:14:26;;;;;;;5.07;2.13;;;;;;;20.76;34.62;102225.03;20820382;28;20543;-60
2022/12/14 03:24:37;;;;;;;4.50;2.13;;;;;;;20.74;34.56;102224.41;20792979;28;20045;-60
2022/12/14 03:34:52;;;;;;;3.63;1.92;;;;;;;20.68;34.44;102225.44;20806639;28;20038;-60
2022/12/14 03:45:06;;;;;;;4.55;2.15;;;;;;;20.68;34.27;102219.03;20790806;28;20041;-61
2022/12/14 03:55:39;;;;;;;2.88;1.80;;;;;;;20.66;34.37;102207.28;20822186;28;20072;-63
2022/12/14 04:06:06;;;;;;;5.80;1.83;;;;;;;20.64;34.38;102184.44;20763547;28;20049;-63
2022/12/14 04:26:54;;;;;;;3.95;1.60;;;;;;;20.43;34.14;102099.75;20733776;28;20114;-62
2022/12/14 04:36:59;;;;;;;4.03;1.60;;;;;;;20.46;34.04;102085.38;20838841;28;20037;-63
2022/12/14 04:47:02;;;;;;;2.65;1.88;;;;;;;20.59;33.79;102090.66;20839633;28;20068;-64
2022/12/14 04:57:20;;;;;;;3.50;1.75;;;;;;;20.60;34.08;102075.63;20833519;28;20045;-63
2022/12/14 05:08:03;;;;;;;3.50;1.70;;;;;;;20.59;34.03;102071.19;20824837;28;20445;-63
2022/12/14 05:18:06;;;;;;;2.08;1.70;;;;;;;20.60;33.90;102042.25;20835161;28;20037;-63
2022/12/14 05:28:10;;;;;;;3.17;1.67;;;;;;;20.67;33.79;102051.28;20839090;28;20201;-62
2022/12/14 05:38:12;;;;;;;1.80;1.38;;;;;;;20.68;33.84;102032.66;20836589;28;20045;-62
2022/12/14 05:48:16;;;;;;;2.78;1.30;;;;;;;20.61;33.63;102021.69;20820296;28;20477;-61
2022/12/14 05:58:17;;;;;;;2.20;1.70;;;;;;;20.28;33.48;101967.75;20799686;28;20046;-62
2022/12/14 06:08:21;;;;;;;2.58;1.60;;;;;;;20.71;33.41;102033.00;20830342;28;20081;-61
2022/12/14 06:18:23;;;;;;;13.57;1.95;;;;;;;20.72;33.62;102015.22;20830687;28;20041;-62
2022/12/14 06:28:24;;;;;;;4.82;1.90;;;;;;;20.70;33.25;102014.63;20830841;28;20107;-61
2022/12/14 06:38:26;;;;;;;1.58;1.25;;;;;;;20.56;33.17;101991.88;20831293;28;20038;-62
2022/12/14 06:48:27;;;;;;;1.95;1.42;;;;;;;20.69;32.81;102012.09;20829700;28;20048;-61
2022/12/14 06:58:31;;;;;;;1.95;1.30;;;;;;;20.63;32.77;102019.53;20787510;28;20050;-64
2022/12/14 07:08:37;;;;;;;2.20;1.38;;;;;;;20.65;33.14;102042.34;20785052;28;20071;-62
2022/12/14 07:18:39;;;;;;;2.28;1.63;;;;;;;20.65;32.85;102044.28;20778094;28;20068;-62
2022/12/14 07:28:41;;;;;;;1.90;1.20;;;;;;;20.60;32.42;102047.81;20769615;28;20041;-62
2022/12/14 07:38:50;;;;;;;1.85;1.25;;;;;;;20.58;32.87;102063.09;20826140;28;20535;-61
2022/12/14 07:48:54;;;;;;;3.08;1.40;;;;;;;20.40;32.50;102047.44;20820204;28;21315;-62
2022/12/14 07:58:56;;;;;;;2.42;1.50;;;;;;;20.53;32.53;102098.06;20806194;28;20053;-61
2022/12/14 08:08:58;;;;;;;1.65;1.40;;;;;;;20.51;32.58;102099.38;20785053;28;20049;-62
2022/12/14 08:19:06;;;;;;;1.30;1.20;;;;;;;20.34;32.55;102081.78;20785888;28;20046;-61
2022/12/14 08:29:13;;;;;;;2.03;1.40;;;;;;;20.47;32.62;102135.19;20794264;28;20558;-62
2022/12/14 08:39:14;;;;;;;1.70;1.30;;;;;;;20.46;32.34;102121.50;20765197;28;20048;-62
2022/12/14 08:49:16;;;;;;;1.92;1.55;;;;;;;20.44;32.18;102149.56;20788352;28;20041;-62
2022/12/14 08:59:26;;;;;;;1.50;1.15;;;;;;;20.40;32.17;102136.41;20786909;28;20451;-62
2022/12/14 09:09:30;;;;;;;1.10;1.00;;;;;;;20.38;32.08;102117.19;20838381;28;20049;-62
2022/12/14 09:19:31;;;;;;;2.70;1.60;;;;;;;20.31;32.47;102111.78;20836533;28;20391;-61
2022/12/14 09:29:33;;;;;;;1.42;1.13;;;;;;;20.28;32.40;102106.72;20833194;28;20037;-61
2022/12/14 09:39:38;;;;;;;2.00;1.25;;;;;;;20.28;32.22;102067.81;20830672;28;20091;-61
2022/12/14 09:50:00;;;;;;;1.35;1.13;;;;;;;20.31;32.24;102050.63;20832075;28;20088;-62
2022/12/14 10:00:13;;;;;;;0.90;0.90;;;;;;;20.33;32.29;102049.53;20830218;28;20046;-62
2022/12/14 10:10:30;;;;;;;1.38;1.23;;;;;;;20.35;32.12;102062.09;20828542;28;20076;-61
2022/12/14 10:20:50;;;;;;;1.45;1.10;;;;;;;20.35;31.96;102061.25;20831187;28;20049;-62
2022/12/14 10:30:58;;;;;;;1.63;1.20;;;;;;;20.26;32.09;102027.47;20816480;28;20053;-62
2022/12/14 10:41:14;;;;;;;1.13;1.02;;;;;;;20.36;32.00;102057.38;20777972;28;20087;-62
2022/12/14 10:51:29;;;;;;;1.42;1.20;;;;;;;20.35;31.92;102061.25;20758429;28;20080;-62
2022/12/14 11:01:33;;;;;;;2.05;1.33;;;;;;;20.37;32.01;102051.56;20804010;28;20039;-62
2022/12/14 11:11:34;;;;;;;1.20;1.10;;;;;;;20.35;32.00;102059.31;20828967;28;20033;-62
2022/12/14 11:21:37;;;;;;;2.60;1.40;;;;;;;20.38;31.87;102028.22;20775177;28;20447;-62
2022/12/14 11:31:44;;;;;;;1.25;1.15;;;;;;;20.37;31.59;102025.72;20796593;28;20046;-62
2022/12/14 11:41:49;;;;;;;1.42;0.95;;;;;;;20.36;32.58;102035.16;20783704;28;20038;-62
2022/12/14 11:52:06;;;;;;;4.95;1.30;;;;;;;20.32;33.15;102043.13;20825782;28;20472;-63
2022/12/14 12:02:35;;;;;;;2.35;1.13;;;;;;;20.37;32.97;102071.03;20826363;28;20500;-62
2022/12/14 12:12:46;;;;;;;2.80;1.02;;;;;;;20.40;33.02;102069.69;20818795;28;20038;-62
2022/12/14 12:22:55;;;;;;;1.48;1.17;;;;;;;20.39;33.13;102087.44;20835574;28;20447;-62
2022/12/14 12:33:08;;;;;;;4.82;1.15;;;;;;;20.37;32.97;102092.41;20840929;28;20038;-62
2022/12/14 12:43:20;;;;;;;1.00;0.90;;;;;;;20.36;33.13;102090.75;20839895;28;20045;-62
2022/12/14 12:53:46;;;;;;;1.88;1.10;;;;;;;20.31;33.24;102114.56;20839021;28;20473;-62
2022/12/14 13:03:52;;;;;;;2.40;1.15;;;;;;;20.36;32.97;102140.78;20825429;28;20477;-62
2022/12/14 13:13:59;;;;;;;0.93;0.80;;;;;;;20.35;32.75;102136.31;20837658;28;20143;-62
2022/12/14 13:24:02;;;;;;;1.48;1.00;;;;;;;20.30;32.70;102149.03;20836145;28;20045;-62
2022/12/14 13:34:36;;;;;;;0.88;0.73;;;;;;;20.25;33.06;102173.06;20834623;28;20480;-62
2022/12/14 13:45:12;;;;;;;1.20;1.00;;;;;;;20.24;32.84;102174.16;20831355;28;20041;-62
2022/12/14 13:55:37;;;;;;;1.55;1.00;;;;;;;20.27;32.71;102180.09;20834857;28;20108;-62
2022/12/14 14:05:44;;;;;;;1.75;1.08;;;;;;;20.36;32.57;102168.59;20824585;28;20053;-62
2022/12/14 14:15:54;;;;;;;1.45;0.77;;;;;;;20.39;32.73;102168.06;20837102;28;20033;-61
2022/12/14 14:26:21;;;;;;;2.25;1.30;;;;;;;20.38;32.71;102171.94;20801021;28;20492;-60
2022/12/14 14:36:31;;;;;;;5.78;3.03;;;;;;;20.44;32.60;102165.41;20799984;28;20041;-61
2022/12/14 14:46:42;;;;;;;11.25;5.90;;;;;;;20.47;32.67;102159.34;20816443;28;20038;-60
2022/12/14 14:56:46;;;;;;;23.13;13.15;;;;;;;20.47;33.00;102151.88;20793421;28;20025;-61
2022/12/14 15:06:53;;;;;;;29.30;16.25;;;;;;;20.49;32.90;102146.06;20827001;28;20400;-61
2022/12/14 15:16:57;;;;;;;33.22;18.35;;;;;;;20.47;33.08;102110.16;20802107;28;20038;-61
2022/12/14 15:26:59;;;;;;;36.63;18.80;;;;;;;20.61;33.36;102115.41;20792030;28;20548;-61
2022/12/14 15:37:00;;;;;;;40.40;19.17;;;;;;;20.62;33.12;102111.53;20827390;28;20038;-62
2022/12/14 15:47:07;;;;;;;38.15;19.17;;;;;;;20.65;33.23;102117.44;20826313;28;20124;-61
2022/12/14 15:57:17;;;;;;;32.83;17.77;;;;;;;20.66;33.34;102113.56;20810016;28;20100;-61
2022/12/14 16:07:26;;;;;;;46.20;18.50;;;;;;;20.64;33.78;102099.06;20798188;28;20049;-61
2022/12/14 16:17:31;;;;;;;26.85;15.52;;;;;;;20.75;33.37;102128.75;20816040;28;20041;-62
2022/12/14 16:27:41;;;;;;;35.60;14.30;;;;;;;20.77;33.40;102109.88;20805423;28;20103;-62
2022/12/14 16:37:47;;;;;;;23.27;13.05;;;;;;;20.85;33.32;102080.81;20818749;28;20034;-62
2022/12/14 16:48:24;;;;;;;22.85;12.27;;;;;;;20.84;33.74;102092.16;20806727;28;20084;-62
2022/12/14 16:58:28;;;;;;;20.95;11.63;;;;;;;20.89;33.53;102051.38;20789506;28;20038;-62
2022/12/14 17:08:32;;;;;;;18.77;10.43;;;;;;;21.04;33.22;102048.00;20822679;28;20447;-60
2022/12/14 17:18:38;;;;;;;20.58;9.65;;;;;;;21.09;33.14;102050.00;20824156;28;20049;-63
2022/12/14 17:28:39;;;;;;;25.42;9.70;;;;;;;21.17;33.20;102044.00;20799809;28;20044;-62
2022/12/14 17:38:40;;;;;;;18.25;9.75;;;;;;;21.16;33.29;102015.31;20816791;28;20038;-64
2022/12/14 17:48:44;;;;;;;23.45;7.75;;;;;;;21.20;33.13;102007.28;20817065;28;20041;-64
2022/12/14 17:58:46;;;;;;;10.45;5.75;;;;;;;21.22;32.26;102005.94;20808651;28;20060;-65
2022/12/14 18:08:50;;;;;;;13.98;7.22;;;;;;;21.23;32.96;102018.75;20831519;28;20489;-64
2022/12/14 18:18:53;;;;;;;18.35;8.30;;;;;;;21.16;32.88;102000.56;20831334;28;20045;-65
2022/12/14 18:28:55;;;;;;;13.82;7.25;;;;;;;20.81;33.29;101932.19;20832111;28;20481;-65
2022/12/14 18:38:57;;;;;;;14.10;6.68;;;;;;;21.15;32.69;101994.16;20831562;28;20037;-65
2022/12/14 18:48:59;;;;;;;11.07;5.10;;;;;;;21.21;32.69;102001.50;20829982;28;20041;-66
2022/12/14 18:59:01;;;;;;;11.35;4.70;;;;;;;21.23;32.34;101984.50;20830053;28;20076;-66
2022/12/14 19:09:03;;;;;;;10.23;5.28;;;;;;;21.23;32.48;101957.50;20829033;28;20067;-64
2022/12/14 19:19:06;;;;;;;7.13;3.90;;;;;;;21.21;32.53;101965.31;20828476;28;20393;-66
2022/12/14 19:29:07;;;;;;;5.07;3.13;;;;;;;21.24;32.16;101961.13;20827885;28;20076;-65
2022/12/14 19:39:12;;;;;;;4.47;2.97;;;;;;;21.22;32.10;101955.84;20827325;28;20088;-65
2022/12/14 19:49:18;;;;;;;7.30;3.78;;;;;;;21.21;32.13;101965.31;20827030;28;20099;-65
2022/12/14 19:59:19;;;;;;;4.82;3.10;;;;;;;21.21;32.17;101987.56;20826826;28;20041;-65
2022/12/14 20:09:23;;;;;;;5.15;2.90;;;;;;;21.21;31.95;102009.84;20827231;28;20374;-65
2022/12/14 20:19:24;;;;;;;4.20;2.40;;;;;;;21.23;32.19;102018.75;20826329;28;20045;-66
2022/12/14 20:29:29;;;;;;;3.85;2.25;;;;;;;21.23;31.77;102017.91;20825968;28;20496;-66
2022/12/14 20:39:30;;;;;;;3.10;1.92;;;;;;;21.21;32.20;102015.41;20829062;28;20049;-64
2022/12/14 20:49:31;;;;;;;3.60;2.45;;;;;;;21.17;32.23;102003.09;20840990;28;20045;-66
2022/12/14 20:59:33;;;;;;;5.15;2.47;;;;;;;21.14;31.84;101989.69;20843791;28;20046;-65
2022/12/14 21:09:34;;;;;;;4.60;2.15;;;;;;;21.10;32.06;101985.72;20837832;28;20049;-65
2022/12/14 21:19:35;;;;;;;3.33;2.10;;;;;;;21.06;31.88;101990.97;20837155;28;20044;-65
2022/12/14 21:29:37;;;;;;;4.57;1.85;;;;;;;21.04;32.35;101993.16;20836899;28;20048;-64
2022/12/14 21:39:38;;;;;;;2.95;1.60;;;;;;;21.02;32.15;101994.50;20836872;28;20443;-65
2022/12/14 21:49:41;;;;;;;3.97;1.67;;;;;;;21.00;32.35;102016.19;20832781;28;20068;-67
2022/12/14 21:59:46;;;;;;;2.20;1.65;;;;;;;20.98;32.07;102015.59;20833475;28;20045;-65
2022/12/14 22:09:50;;;;;;;3.38;1.63;;;;;;;20.95;32.22;102013.34;20828097;28;20054;-65
2022/12/14 22:19:53;;;;;;;3.22;1.98;;;;;;;20.95;32.44;102030.03;20832926;28;20484;-65
2022/12/14 22:29:55;;;;;;;1.90;1.35;;;;;;;20.92;32.15;102044.44;20831766;28;20052;-67
2022/12/14 22:39:59;;;;;;;2.53;1.30;;;;;;;20.80;32.22;102042.63;20831809;28;20030;-65
2022/12/14 22:50:00;;;;;;;3.60;1.63;;;;;;;20.85;32.56;102032.63;20831250;28;20041;-66
2022/12/14 23:00:10;;;;;;;2.35;1.40;;;;;;;20.85;32.45;102055.78;20829560;28;20558;-65
